createdAt,value
2018-02-08T00:00:55.127Z,46.47
2018-02-08T00:03:24.213Z,46.50
2018-02-08T00:05:53.340Z,46.33
2018-02-08T00:08:22.472Z,46.90
2018-02-08T00:10:52.350Z,48.23
2018-02-08T00:13:22.213Z,46.20
2018-02-08T00:15:51.324Z,48.00
2018-02-08T00:18:20.478Z,46.00
2018-02-08T00:20:49.560Z,46.30
2018-02-08T00:23:18.648Z,48.00
2018-02-08T00:25:47.780Z,47.87
2018-02-08T00:28:18.566Z,45.80
2018-02-08T00:30:47.752Z,48.40
2018-02-08T00:33:16.911Z,46.27
2018-02-08T00:35:46.787Z,45.73
2018-02-08T00:38:15.884Z,47.43
2018-02-08T00:40:44.994Z,45.17
2018-02-08T00:43:14.858Z,48.90
2018-02-08T00:45:44.796Z,47.70
2018-02-08T00:48:13.897Z,46.87
2018-02-08T00:50:43.032Z,47.47
2018-02-08T00:53:12.927Z,48.57
2018-02-08T00:55:42.075Z,45.97
2018-02-08T00:58:11.157Z,47.83
2018-02-08T01:00:40.352Z,48.70
2018-02-08T01:03:10.225Z,46.70
2018-02-08T01:05:39.427Z,48.07
2018-02-08T01:08:08.519Z,47.57
2018-02-08T01:10:37.666Z,48.47
2018-02-08T01:13:06.765Z,48.13
2018-02-08T01:15:35.902Z,45.80
2018-02-08T01:18:05.297Z,47.63
2018-02-08T01:20:34.439Z,49.57
2018-02-08T01:23:04.301Z,46.97
2018-02-08T01:25:34.203Z,45.60
2018-02-08T01:28:03.321Z,42.67
2018-02-08T01:30:33.154Z,44.17
2018-02-08T01:33:02.286Z,44.63
2018-02-08T01:35:31.411Z,46.47
2018-02-08T01:38:00.860Z,47.70
2018-02-08T01:40:30.730Z,45.23
2018-02-08T01:42:59.867Z,46.57
2018-02-08T01:45:28.982Z,47.10
2018-02-08T01:47:58.887Z,48.13
2018-02-08T01:50:28.807Z,46.90
2018-02-08T01:52:57.900Z,47.50
2018-02-08T01:55:27.799Z,45.60
2018-02-08T01:57:56.922Z,47.77
2018-02-08T02:00:26.757Z,47.10
2018-02-08T02:02:55.859Z,48.13
2018-02-08T02:05:24.982Z,46.30
2018-02-08T02:07:54.083Z,46.87
2018-02-08T02:10:23.229Z,48.03
2018-02-08T02:12:52.311Z,48.53
2018-02-08T02:15:21.445Z,47.53
2018-02-08T02:17:51.298Z,51.03
2018-02-08T02:20:21.183Z,47.63
2018-02-08T02:22:51.067Z,45.43
2018-02-08T02:25:20.176Z,46.40
2018-02-08T02:27:49.372Z,48.13
2018-02-08T02:30:18.605Z,45.93
2018-02-08T02:32:48.462Z,46.73
2018-02-08T02:35:17.574Z,49.10
2018-02-08T02:37:46.714Z,47.90
2018-02-08T02:40:15.830Z,48.10
2018-02-08T02:42:45.732Z,47.00
2018-02-08T02:45:14.850Z,48.20
2018-02-08T02:47:43.954Z,48.40
2018-02-08T02:50:13.069Z,48.40
2018-02-08T02:52:42.161Z,48.10
2018-02-08T02:55:11.286Z,48.97
2018-02-08T02:57:40.532Z,47.03
2018-02-08T03:00:09.645Z,48.10
2018-02-08T03:02:39.177Z,46.40
2018-02-08T03:05:08.310Z,48.10
2018-02-08T03:07:37.408Z,49.53
2018-02-08T03:10:06.525Z,46.80
2018-02-08T03:12:36.382Z,47.90
2018-02-08T03:15:05.506Z,49.10
2018-02-08T03:17:34.640Z,47.63
2018-02-08T03:20:03.777Z,50.47
2018-02-08T03:22:32.907Z,48.87
2018-02-08T03:25:02.001Z,45.83
2018-02-08T03:27:31.899Z,47.20
2018-02-08T03:30:02.530Z,47.57
2018-02-08T03:32:32.200Z,48.87
2018-02-08T03:35:01.325Z,45.27
2018-02-08T03:37:30.449Z,47.47
2018-02-08T03:39:59.570Z,47.47
2018-02-08T03:42:29.441Z,45.73
2018-02-08T03:44:58.537Z,47.87
2018-02-08T03:47:27.646Z,47.43
2018-02-08T03:49:56.773Z,47.83
2018-02-08T03:52:26.702Z,46.03
2018-02-08T03:54:55.814Z,49.57
2018-02-08T03:57:25.838Z,47.50
2018-02-08T03:59:54.973Z,46.70
2018-02-08T04:02:24.061Z,46.33
2018-02-08T04:04:53.186Z,47.53
2018-02-08T04:07:22.290Z,47.40
2018-02-08T04:09:51.409Z,49.37
2018-02-08T04:12:20.518Z,47.83
2018-02-08T04:14:49.640Z,49.60
2018-02-08T04:17:18.763Z,47.40
2018-02-08T04:19:48.660Z,48.40
2018-02-08T04:22:18.556Z,48.50
2018-02-08T04:24:47.649Z,47.47
2018-02-08T04:27:17.674Z,47.87
2018-02-08T04:29:46.770Z,47.27
2018-02-08T04:32:16.962Z,47.03
2018-02-08T04:34:46.072Z,47.47
2018-02-08T04:37:15.244Z,49.17
2018-02-08T04:40:02.030Z,47.40
2018-02-08T04:42:49.633Z,46.27
2018-02-08T04:45:36.597Z,47.83
2018-02-08T04:48:08.451Z,48.17
2018-02-08T04:50:37.575Z,46.93
2018-02-08T04:53:07.480Z,48.53
2018-02-08T04:55:37.101Z,45.33
2018-02-08T04:58:06.226Z,48.90
2018-02-08T05:00:35.354Z,48.20
2018-02-08T05:03:04.464Z,44.83
2018-02-08T05:05:33.594Z,45.63
2018-02-08T05:08:02.706Z,45.70
2018-02-08T05:10:31.833Z,46.97
2018-02-08T05:13:01.688Z,46.10
2018-02-08T05:15:30.806Z,47.97
2018-02-08T05:17:59.929Z,50.07
2018-02-08T05:20:29.037Z,50.43
2018-02-08T05:22:58.918Z,49.10
2018-02-08T05:25:28.044Z,45.83
2018-02-08T05:27:57.935Z,51.50
2018-02-08T05:30:27.024Z,49.33
2018-02-08T05:32:56.193Z,48.50
2018-02-08T05:35:25.247Z,49.27
2018-02-08T05:37:54.376Z,47.70
2018-02-08T05:40:23.507Z,49.10
2018-02-08T05:42:52.645Z,47.60
2018-02-08T05:45:22.381Z,45.27
2018-02-08T05:47:51.505Z,47.00
2018-02-08T05:50:20.684Z,45.90
2018-02-08T05:52:49.849Z,46.00
2018-02-08T05:55:20.111Z,50.50
2018-02-08T05:57:49.989Z,46.23
2018-02-08T06:00:19.164Z,46.80
2018-02-08T06:02:48.280Z,46.00
2018-02-08T06:05:17.376Z,44.67
2018-02-08T06:07:46.482Z,45.37
2018-02-08T06:10:15.601Z,45.00
2018-02-08T06:12:44.725Z,46.10
2018-02-08T06:15:14.146Z,46.90
2018-02-08T06:17:44.122Z,46.50
2018-02-08T06:20:13.983Z,45.63
2018-02-08T06:22:43.123Z,44.60
2018-02-08T06:25:12.256Z,45.03
2018-02-08T06:27:41.646Z,45.27
2018-02-08T06:30:11.481Z,46.23
2018-02-08T06:32:40.604Z,48.23
2018-02-08T06:35:10.470Z,45.50
2018-02-08T06:37:39.621Z,46.07
2018-02-08T06:40:08.746Z,47.80
2018-02-08T06:42:37.877Z,48.17
2018-02-08T06:45:07.002Z,45.67
2018-02-08T06:47:36.864Z,46.93
2018-02-08T06:50:05.988Z,44.93
2018-02-08T06:52:35.107Z,43.93
2018-02-08T06:55:05.015Z,45.57
2018-02-08T06:57:34.134Z,44.17
2018-02-08T07:00:03.267Z,43.93
2018-02-08T07:02:32.377Z,46.57
2018-02-08T07:05:01.536Z,43.30
2018-02-08T07:07:30.650Z,44.97
2018-02-08T07:09:59.761Z,44.70
2018-02-08T07:12:29.654Z,44.60
2018-02-08T07:14:59.537Z,44.00
2018-02-08T07:17:29.473Z,46.43
2018-02-08T07:19:58.584Z,44.13
2018-02-08T07:22:28.473Z,47.57
2018-02-08T07:24:57.639Z,47.93
2018-02-08T07:27:26.738Z,48.10
2018-02-08T07:29:55.843Z,45.40
2018-02-08T07:32:25.731Z,45.37
2018-02-08T07:34:54.857Z,47.27
2018-02-08T07:37:24.849Z,45.80
2018-02-08T07:39:53.976Z,47.40
2018-02-08T07:42:24.702Z,47.77
2018-02-08T07:44:54.955Z,48.50
2018-02-08T07:47:25.709Z,46.97
2018-02-08T07:49:54.874Z,48.40
2018-02-08T07:52:24.763Z,45.53
2018-02-08T07:54:53.921Z,47.87
2018-02-08T07:57:23.038Z,49.57
2018-02-08T07:59:52.174Z,49.53
2018-02-08T08:02:21.282Z,46.27
2018-02-08T08:04:50.400Z,47.47
2018-02-08T08:07:19.514Z,50.00
2018-02-08T08:09:48.677Z,49.57
2018-02-08T08:12:18.527Z,49.80
2018-02-08T08:14:47.778Z,48.00
2018-02-08T08:17:16.905Z,45.93
2018-02-08T08:19:47.137Z,47.77
2018-02-08T08:22:16.230Z,47.83
2018-02-08T08:24:45.345Z,46.50
2018-02-08T08:27:14.456Z,50.30
2018-02-08T08:29:43.619Z,49.40
2018-02-08T08:32:12.747Z,51.20
2018-02-08T08:34:41.921Z,48.30
2018-02-08T08:37:11.017Z,49.97
2018-02-08T08:39:40.133Z,48.70
2018-02-08T08:42:09.418Z,50.27
2018-02-08T08:44:38.539Z,49.93
2018-02-08T08:47:07.946Z,51.43
2018-02-08T08:49:37.093Z,52.00
2018-02-08T08:52:07.215Z,49.67
2018-02-08T08:54:36.323Z,48.87
2018-02-08T08:57:06.222Z,50.20
2018-02-08T08:59:35.949Z,48.03
2018-02-08T09:02:05.081Z,47.17
2018-02-08T09:04:34.246Z,49.70
2018-02-08T09:07:03.369Z,47.43
2018-02-08T09:09:32.529Z,48.63
2018-02-08T09:12:01.618Z,50.23
2018-02-08T09:14:30.722Z,50.10
2018-02-08T09:17:00.693Z,46.07
2018-02-08T09:19:29.782Z,47.23
2018-02-08T09:21:59.675Z,50.70
2018-02-08T09:24:28.784Z,48.07
2018-02-08T09:26:57.903Z,48.37
2018-02-08T09:29:28.893Z,45.13
2018-02-08T09:31:58.010Z,45.63
2018-02-08T09:34:27.136Z,48.50
2018-02-08T09:36:57.042Z,49.60
2018-02-08T09:39:26.153Z,47.80
2018-02-08T09:41:56.037Z,46.27
2018-02-08T09:44:25.906Z,47.53
2018-02-08T09:46:55.056Z,46.57
2018-02-08T09:49:24.894Z,48.00
2018-02-08T09:51:54.010Z,46.53
2018-02-08T09:54:23.142Z,45.23
2018-02-08T09:56:53.189Z,48.87
2018-02-08T09:59:22.310Z,48.77
2018-02-08T10:01:51.422Z,47.13
2018-02-08T10:04:20.545Z,49.50
2018-02-08T10:16:53.472Z,44.63
2018-02-08T10:25:29.418Z,48.80
2018-02-08T10:28:03.137Z,50.27
2018-02-08T10:30:33.027Z,51.87
2018-02-08T10:33:02.122Z,46.63
2018-02-08T10:35:31.286Z,49.10
2018-02-08T10:38:00.402Z,48.27
2018-02-08T10:40:29.610Z,46.53
2018-02-08T10:42:58.733Z,46.80
2018-02-08T10:45:29.257Z,46.00
2018-02-08T10:47:58.720Z,55.60
2018-02-08T10:50:27.833Z,48.90
2018-02-08T10:52:58.075Z,47.10
2018-02-08T10:55:29.011Z,46.60
2018-02-08T10:57:58.940Z,50.53
2018-02-08T11:00:28.134Z,50.33
2018-02-08T11:02:58.458Z,46.83
2018-02-08T11:05:27.560Z,46.37
2018-02-08T11:07:57.464Z,50.10
2018-02-08T11:10:26.566Z,50.40
2018-02-08T11:12:56.450Z,52.60
2018-02-08T11:15:25.560Z,49.60
2018-02-08T11:17:54.691Z,49.97
2018-02-08T11:20:24.547Z,48.43
2018-02-08T11:22:53.646Z,48.40
2018-02-08T11:25:22.770Z,50.50
2018-02-08T11:27:51.861Z,49.00
2018-02-08T11:30:21.681Z,47.83
2018-02-08T11:32:51.564Z,50.50
2018-02-08T11:35:23.084Z,46.60
2018-02-08T11:37:52.213Z,49.10
2018-02-08T11:40:21.943Z,51.10
2018-02-08T11:42:51.047Z,50.90
2018-02-08T11:45:20.142Z,49.17
2018-02-08T11:47:50.032Z,52.97
2018-02-08T11:50:19.193Z,48.27
2018-02-08T11:52:48.405Z,50.87
2018-02-08T11:55:18.231Z,46.57
2018-02-08T11:57:47.341Z,48.53
2018-02-08T12:00:16.434Z,46.10
2018-02-08T12:02:45.574Z,49.00
2018-02-08T12:05:14.691Z,50.33
2018-02-08T12:07:43.802Z,48.43
2018-02-08T12:10:12.907Z,50.53
2018-02-08T12:12:42.849Z,49.17
2018-02-08T12:15:11.937Z,48.83
2018-02-08T12:17:41.094Z,50.67
2018-02-08T12:20:10.190Z,49.73
2018-02-08T12:22:39.301Z,49.00
2018-02-08T12:25:08.431Z,49.60
2018-02-08T12:27:37.731Z,48.00
2018-02-08T12:30:06.828Z,49.60
2018-02-08T12:32:36.338Z,52.63
2018-02-08T12:35:06.371Z,47.43
2018-02-08T12:37:35.664Z,48.73
2018-02-08T12:40:04.782Z,50.27
2018-02-08T12:42:33.889Z,50.87
2018-02-08T12:45:02.993Z,48.27
2018-02-08T12:47:32.133Z,47.17
2018-02-08T12:50:01.253Z,47.97
2018-02-08T12:52:31.138Z,49.97
2018-02-08T12:55:00.261Z,47.43
2018-02-08T12:57:30.147Z,49.33
2018-02-08T12:59:59.248Z,48.27
2018-02-08T13:02:28.365Z,46.37
2018-02-08T13:04:58.250Z,48.10
2018-02-08T13:07:27.364Z,48.60
2018-02-08T13:09:56.494Z,49.90
2018-02-08T13:12:25.591Z,47.87
2018-02-08T13:14:54.764Z,47.00
2018-02-08T13:17:23.880Z,47.63
2018-02-08T13:19:53.758Z,50.90
2018-02-08T13:22:22.894Z,49.70
2018-02-08T13:24:52.036Z,45.70
2018-02-08T13:27:21.149Z,47.87
2018-02-08T13:29:50.273Z,45.73
2018-02-08T13:32:20.714Z,45.77
2018-02-08T13:34:49.855Z,47.77
2018-02-08T13:37:20.418Z,46.73
2018-02-08T13:42:56.852Z,45.20
2018-02-08T13:45:25.980Z,47.30
2018-02-08T13:48:09.845Z,46.40
2018-02-08T13:50:59.313Z,46.10
2018-02-08T13:53:33.801Z,47.83
2018-02-08T13:56:10.372Z,45.30
2018-02-08T13:58:56.085Z,46.17
2018-02-08T14:01:35.144Z,45.63
2018-02-08T14:04:05.005Z,46.03
2018-02-08T14:06:34.355Z,48.00
2018-02-08T14:09:03.477Z,51.37
2018-02-08T14:11:32.574Z,46.73
2018-02-08T14:14:01.710Z,44.40
2018-02-08T14:16:30.794Z,48.33
2018-02-08T14:19:01.601Z,45.47
2018-02-08T14:21:30.697Z,44.70
2018-02-08T14:23:59.830Z,46.97
2018-02-08T14:26:29.952Z,46.80
2018-02-08T14:28:59.099Z,48.17
2018-02-08T14:31:28.972Z,46.20
2018-02-08T14:33:58.092Z,46.60
2018-02-08T14:36:28.723Z,47.43
2018-02-08T14:38:59.578Z,45.77
2018-02-08T14:41:28.727Z,48.87
2018-02-08T14:43:57.843Z,47.07
2018-02-08T14:46:28.344Z,45.37
2018-02-08T14:48:57.441Z,46.27
2018-02-08T14:51:26.562Z,48.00
2018-02-08T14:53:56.460Z,47.17
2018-02-08T14:56:25.576Z,46.43
2018-02-08T14:58:55.427Z,46.80
2018-02-08T15:01:24.533Z,46.53
2018-02-08T15:03:54.416Z,46.63
2018-02-08T15:06:25.120Z,46.83
2018-02-08T15:08:54.263Z,47.00
2018-02-08T15:11:23.364Z,49.57
2018-02-08T15:13:52.501Z,46.83
2018-02-08T15:16:21.627Z,49.20
2018-02-08T15:18:51.539Z,48.43
2018-02-08T15:21:21.402Z,51.07
2018-02-08T15:23:50.518Z,50.07
2018-02-08T15:26:19.633Z,50.13
2018-02-08T15:28:48.746Z,48.90
2018-02-08T15:31:17.842Z,52.43
2018-02-08T15:33:46.967Z,47.63
2018-02-08T15:36:16.089Z,47.90
2018-02-08T15:38:45.544Z,47.97
2018-02-08T15:41:14.677Z,49.03
2018-02-08T15:43:43.790Z,49.20
2018-02-08T15:46:12.916Z,48.13
2018-02-08T15:48:42.079Z,45.73
2018-02-08T15:51:11.932Z,49.83
2018-02-08T15:53:42.027Z,50.43
2018-02-08T15:56:11.158Z,46.80
2018-02-08T15:58:41.033Z,50.20
2018-02-08T16:01:10.200Z,47.67
2018-02-08T16:03:39.308Z,46.03
2018-02-08T16:06:08.426Z,48.30
2018-02-08T16:08:37.542Z,49.97
2018-02-08T16:11:07.427Z,48.63
2018-02-08T16:13:36.545Z,49.83
2018-02-08T16:16:05.689Z,51.03
2018-02-08T16:18:34.802Z,49.07
2018-02-08T16:21:04.044Z,49.10
2018-02-08T16:23:33.953Z,47.43
2018-02-08T16:26:03.054Z,47.60
2018-02-08T16:28:32.961Z,48.60
2018-02-08T16:31:02.067Z,50.50
2018-02-08T16:33:31.958Z,48.13
2018-02-08T16:36:01.123Z,46.50
2018-02-08T16:38:30.239Z,48.33
2018-02-08T16:40:59.360Z,46.23
2018-02-08T16:43:28.471Z,45.67
2018-02-08T16:45:57.602Z,45.67
2018-02-08T16:48:26.730Z,47.00
2018-02-08T16:50:55.844Z,46.10
2018-02-08T16:53:24.979Z,46.77
2018-02-08T16:55:54.062Z,45.93
2018-02-08T16:58:23.199Z,44.40
2018-02-08T17:00:52.282Z,48.23
2018-02-08T17:03:21.439Z,46.53
2018-02-08T17:05:50.583Z,46.77
2018-02-08T17:08:19.717Z,47.70
2018-02-08T17:10:48.855Z,49.80
2018-02-08T17:13:17.987Z,47.70
2018-02-08T17:15:47.128Z,48.00
2018-02-08T17:18:16.195Z,46.60
2018-02-08T17:20:45.321Z,44.40
2018-02-08T17:23:15.209Z,47.57
2018-02-08T17:25:44.349Z,47.70
2018-02-08T17:28:13.447Z,45.77
2018-02-08T17:30:43.136Z,46.47
2018-02-08T17:33:13.012Z,45.57
2018-02-08T17:35:43.106Z,46.93
2018-02-08T17:38:13.078Z,46.60
2018-02-08T17:40:43.714Z,47.67
2018-02-08T17:43:13.584Z,44.97
2018-02-08T17:45:42.727Z,48.30
2018-02-08T17:48:12.655Z,51.70
2018-02-08T17:50:42.539Z,55.73
2018-02-08T17:53:12.377Z,56.30
2018-02-08T17:55:42.497Z,57.47
2018-02-08T17:58:12.380Z,53.97
2018-02-08T18:00:41.474Z,52.00
2018-02-08T18:03:11.473Z,46.00
2018-02-08T18:05:40.585Z,45.50
2018-02-08T18:08:09.707Z,48.10
2018-02-08T18:10:39.570Z,43.80
2018-02-08T18:13:08.753Z,45.53
2018-02-08T18:15:37.851Z,45.03
2018-02-08T18:18:07.804Z,47.47
2018-02-08T18:20:36.887Z,49.90
2018-02-08T18:23:06.048Z,50.00
2018-02-08T18:25:35.300Z,54.30
2018-02-08T18:28:04.416Z,55.07
2018-02-08T18:30:34.287Z,53.50
2018-02-08T18:33:03.425Z,58.20
2018-02-08T18:35:33.319Z,51.50
2018-02-08T18:38:02.479Z,57.40
2018-02-08T18:40:31.667Z,55.23
2018-02-08T18:43:00.732Z,56.83
2018-02-08T18:45:31.068Z,53.70
2018-02-08T18:48:00.276Z,54.07
2018-02-08T18:50:29.415Z,53.60
2018-02-08T18:52:58.547Z,52.80
2018-02-08T18:55:28.416Z,56.90
2018-02-08T18:57:57.544Z,49.87
2018-02-08T19:00:26.666Z,55.50
2018-02-08T19:02:56.545Z,56.03
2018-02-08T19:05:25.660Z,53.37
2018-02-08T19:07:54.802Z,55.33
2018-02-08T19:10:24.712Z,55.97
2018-02-08T19:12:53.827Z,53.80
2018-02-08T19:15:22.950Z,54.43
2018-02-08T19:17:52.071Z,55.50
2018-02-08T19:20:22.485Z,57.73
2018-02-08T19:22:51.637Z,51.63
2018-02-08T19:25:20.829Z,50.97
2018-02-08T19:27:49.943Z,49.67
2018-02-08T19:30:19.187Z,52.10
2018-02-08T19:32:49.100Z,52.33
2018-02-08T19:35:18.954Z,51.43
2018-02-08T19:37:48.078Z,49.97
2018-02-08T19:40:17.213Z,50.00
2018-02-08T19:42:47.087Z,49.50
2018-02-08T19:45:16.192Z,48.23
2018-02-08T19:47:45.345Z,45.70
2018-02-08T19:50:14.461Z,47.37
2018-02-08T19:52:43.586Z,47.40
2018-02-08T19:55:12.716Z,51.50
2018-02-08T19:57:42.596Z,48.73
2018-02-08T20:00:11.726Z,49.70
2018-02-08T20:02:41.596Z,51.17
2018-02-08T20:05:10.711Z,52.60
2018-02-08T20:07:39.858Z,52.03
2018-02-08T20:10:08.988Z,53.97
2018-02-08T20:12:38.131Z,60.97
2018-02-08T20:15:24.785Z,50.43
2018-02-08T20:17:53.919Z,47.10
2018-02-08T20:20:23.825Z,49.43
2018-02-08T20:22:53.711Z,49.43
2018-02-08T20:25:28.261Z,55.00
2018-02-08T20:27:57.364Z,61.37
2018-02-08T20:30:27.269Z,65.30
2018-02-08T20:32:56.375Z,68.53
2018-02-08T20:35:26.995Z,66.50
2018-02-08T20:37:56.127Z,62.87
2018-02-08T20:40:25.664Z,65.60
2018-02-08T20:46:02.653Z,61.03
2018-02-08T20:48:31.739Z,57.20
2018-02-08T20:51:00.834Z,57.50
2018-02-08T20:53:29.980Z,59.07
2018-02-08T20:55:59.277Z,53.67
2018-02-08T20:58:28.419Z,54.10
2018-02-08T21:00:57.517Z,54.53
2018-02-08T21:03:26.662Z,54.40
2018-02-08T21:05:55.767Z,53.63
2018-02-08T21:08:24.873Z,54.33
2018-02-08T21:10:54.001Z,52.37
2018-02-08T21:13:23.383Z,51.93
2018-02-08T21:15:53.372Z,54.97
2018-02-08T21:18:22.502Z,52.63
2018-02-08T21:20:51.640Z,54.47
2018-02-08T21:23:20.792Z,55.03
2018-02-08T21:25:49.900Z,52.97
2018-02-08T21:28:19.059Z,52.47
2018-02-08T21:30:48.148Z,53.20
2018-02-08T21:33:17.255Z,54.43
2018-02-08T21:35:46.396Z,55.80
2018-02-08T21:38:15.485Z,56.20
2018-02-08T21:40:44.634Z,54.43
2018-02-08T21:43:13.776Z,53.53
2018-02-08T21:45:43.660Z,54.57
2018-02-08T21:48:13.696Z,55.00
2018-02-08T21:50:43.578Z,57.67
2018-02-08T21:53:12.701Z,57.23
2018-02-08T21:55:42.781Z,56.80
2018-02-08T21:58:11.929Z,55.47
2018-02-08T22:00:43.197Z,53.60
2018-02-08T22:03:12.339Z,56.57
2018-02-08T22:05:41.473Z,61.83
2018-02-08T22:08:11.423Z,61.17
2018-02-08T22:10:40.520Z,71.40
2018-02-08T22:13:09.639Z,58.77
2018-02-08T22:15:38.747Z,58.83
2018-02-08T22:18:07.882Z,56.30
2018-02-08T22:20:36.983Z,59.53
2018-02-08T22:23:06.095Z,60.10
2018-02-08T22:25:36.114Z,60.73
2018-02-08T22:28:05.279Z,60.10
2018-02-08T22:30:35.810Z,59.90
2018-02-08T22:33:04.914Z,58.93
2018-02-08T22:35:34.022Z,58.40
2018-02-08T22:38:03.141Z,59.30
2018-02-08T22:40:32.339Z,60.67
2018-02-08T22:43:01.459Z,61.60
2018-02-08T22:45:30.584Z,64.27
2018-02-08T22:48:00.543Z,60.07
2018-02-08T22:50:29.668Z,64.57
2018-02-08T22:52:58.792Z,60.33
2018-02-08T22:55:28.694Z,58.23
2018-02-08T22:57:58.557Z,60.60
2018-02-08T23:00:27.819Z,57.87
2018-02-08T23:02:57.685Z,59.00
2018-02-08T23:05:26.798Z,55.70
2018-02-08T23:07:55.924Z,58.40
2018-02-08T23:10:25.805Z,55.80
2018-02-08T23:12:54.920Z,56.27
2018-02-08T23:15:24.560Z,55.10
2018-02-08T23:17:54.300Z,55.77
2018-02-08T23:20:23.395Z,54.90
2018-02-08T23:22:52.519Z,56.20
2018-02-08T23:25:21.618Z,54.23
2018-02-08T23:27:51.519Z,57.07
2018-02-08T23:30:20.601Z,56.97
2018-02-08T23:32:50.661Z,53.77
2018-02-08T23:35:19.749Z,53.10
2018-02-08T23:37:49.637Z,56.00
2018-02-08T23:40:18.809Z,56.03
2018-02-08T23:42:47.922Z,54.63
2018-02-08T23:45:17.036Z,52.47
2018-02-08T23:47:46.699Z,56.10
2018-02-08T23:50:15.786Z,52.30
2018-02-08T23:52:44.898Z,54.30
2018-02-08T23:55:14.011Z,51.50
2018-02-08T23:57:43.131Z,51.43
